Time;durP1;ratioP1;P1;durP2;ratioP2;P2;SDS_P1;SDS_P2;PMS_P1;PMS_P2;Temp;Humidity;BMP_temperature;BMP_pressure;BME280_temperature;BME280_humidity;BME280_pressure;Samples;Min_cycle;Max_cycle;Signal;HPM_P1;HPM_P2
2024/01/30 00:03:29;;;;;;;;;;;;;;;-0.10;100.00;101113.33;438593;1255;124335;-58
2024/01/30 00:13:34;;;;;;;;;;;;;;;-0.20;100.00;101117.59;434026;1252;126204;-59
2024/01/30 00:23:38;;;;;;;;;;;;;;;-0.21;100.00;101121.71;434037;1254;125284;-59
2024/01/30 00:33:42;;;;;;;;;;;;;;;-0.18;100.00;101115.88;434658;1253;124886;-57
2024/01/30 00:43:47;;;;;;;;;;;;;;;-0.25;100.00;101112.06;438393;1255;124800;-58
2024/01/30 00:53:51;;;;;;;;;;;;;;;-0.35;100.00;101108.73;434781;1253;125468;-58
2024/01/30 01:03:55;;;;;;;;;;;;;;;-0.48;100.00;101100.40;434158;1253;126568;-59
2024/01/30 01:14:00;;;;;;;;;;;;;;;-0.60;100.00;101090.17;434973;1253;126407;-57
2024/01/30 01:24:05;;;;;;;;;;;;;;;-0.69;100.00;101080.84;434516;1255;126786;-58
2024/01/30 01:34:09;;;;;;;;;;;;;;;-0.77;100.00;101075.45;434467;1252;125679;-58
2024/01/30 01:44:13;;;;;;;;;;;;;;;-0.85;100.00;101079.36;434733;1253;126147;-58
2024/01/30 01:54:18;;;;;;;;;;;;;;;-0.95;100.00;101078.25;434221;1252;127144;-58
2024/01/30 02:04:22;;;;;;;;;;;;;;;-1.19;100.00;101082.52;434593;1255;125920;-58
2024/01/30 02:14:27;;;;;;;;;;;;;;;-1.41;100.00;101082.15;434188;1256;125292;-57
2024/01/30 02:24:34;;;;;;;;;;;;;;;-1.59;100.00;101079.92;441238;1254;408050;-58
2024/01/30 02:34:38;;;;;;;;;;;;;;;-1.73;100.00;101085.28;433983;1252;126746;-57
2024/01/30 02:44:43;;;;;;;;;;;;;;;-1.84;100.00;101083.61;434580;1257;125314;-57
2024/01/30 02:54:47;;;;;;;;;;;;;;;-1.94;100.00;101078.86;434281;1252;127014;-58
2024/01/30 03:04:51;;;;;;;;;;;;;;;-2.00;100.00;101074.85;434477;1253;127472;-58
2024/01/30 03:14:56;;;;;;;;;;;;;;;-2.10;100.00;101076.79;435042;1256;125272;-57
2024/01/30 03:25:00;;;;;;;;;;;;;;;-2.21;100.00;101085.40;434480;1256;126020;-58
2024/01/30 03:35:05;;;;;;;;;;;;;;;-2.31;100.00;101085.28;434760;1253;126466;-59
2024/01/30 03:45:10;;;;;;;;;;;;;;;-2.38;100.00;101078.52;434098;1254;124565;-58
2024/01/30 03:55:14;;;;;;;;;;;;;;;-2.55;100.00;101067.64;436035;1254;126232;-59
2024/01/30 04:05:19;;;;;;;;;;;;;;;-2.67;100.00;101066.46;434517;1257;125029;-58
2024/01/30 04:15:23;;;;;;;;;;;;;;;-2.63;100.00;101067.36;434468;1252;125074;-58
2024/01/30 04:25:28;;;;;;;;;;;;;;;-2.70;100.00;101067.27;434051;1257;125927;-59
2024/01/30 04:35:32;;;;;;;;;;;;;;;-2.80;100.00;101062.33;434408;1256;126255;-57
2024/01/30 04:45:36;;;;;;;;;;;;;;;-2.79;100.00;101063.87;434834;1255;125740;-58
2024/01/30 04:55:41;;;;;;;;;;;;;;;-2.77;100.00;101063.56;434447;1257;125293;-59
2024/01/30 05:05:45;;;;;;;;;;;;;;;-2.72;100.00;101064.50;434142;1256;127060;-58
2024/01/30 05:15:50;;;;;;;;;;;;;;;-2.73;100.00;101063.45;434160;1258;126411;-58
2024/01/30 05:25:54;;;;;;;;;;;;;;;-2.72;100.00;101071.35;436263;1252;125771;-58
2024/01/30 05:35:58;;;;;;;;;;;;;;;-2.75;100.00;101071.66;434186;1252;127085;-58
2024/01/30 05:46:03;;;;;;;;;;;;;;;-2.76;100.00;101072.32;434132;1257;125596;-58
2024/01/30 05:56:08;;;;;;;;;;;;;;;-2.82;100.00;101071.56;434142;1257;125260;-59
2024/01/30 06:06:12;;;;;;;;;;;;;;;-2.90;100.00;101076.05;435651;1256;125805;-58
2024/01/30 06:16:16;;;;;;;;;;;;;;;-3.00;100.00;101075.73;434250;1252;126245;-59
2024/01/30 06:26:21;;;;;;;;;;;;;;;-3.02;100.00;101082.20;434274;1257;125950;-58
2024/01/30 06:36:25;;;;;;;;;;;;;;;-2.93;100.00;101085.45;434063;1253;126459;-58
2024/01/30 06:46:29;;;;;;;;;;;;;;;-2.76;100.00;101087.23;434153;1257;126752;-59
2024/01/30 06:56:34;;;;;;;;;;;;;;;-2.48;100.00;101091.23;437260;1254;126037;-59
2024/01/30 07:06:38;;;;;;;;;;;;;;;-2.07;100.00;101092.27;434113;1253;126484;-60
2024/01/30 07:16:42;;;;;;;;;;;;;;;-1.67;100.00;101089.11;433929;1256;125816;-65
2024/01/30 07:26:47;;;;;;;;;;;;;;;-0.39;100.00;101087.94;434346;1257;126093;-69
2024/01/30 07:36:51;;;;;;;;;;;;;;;3.55;100.00;101090.33;434287;1253;126728;-67
2024/01/30 07:46:59;;;;;;;;;;;;;;;7.98;100.00;101080.80;434197;1258;125655;-67
2024/01/30 07:57:03;;;;;;;;;;;;;;;11.49;99.87;101069.08;434417;1256;125497;-67
2024/01/30 08:07:08;;;;;;;;;;;;;;;14.35;95.05;101062.81;434179;1256;125440;-66
2024/01/30 08:17:13;;;;;;;;;;;;;;;15.99;88.92;101060.14;435836;1253;126504;-70
2024/01/30 08:27:17;;;;;;;;;;;;;;;17.51;84.12;101060.62;439792;1253;124994;-70
2024/01/30 08:43:47;;;;;;;8.30;6.10;;;;;;;20.14;78.74;101045.84;426377;1297;601528;-67
2024/01/30 08:53:53;;;;;;;10.50;8.00;;;;;;;21.04;73.18;101054.05;432257;1270;269033;-65
2024/01/30 09:04:00;;;;;;;8.90;8.00;;;;;;;21.81;70.20;101050.41;431575;1266;138588;-72
2024/01/30 09:14:06;;;;;;;9.30;7.60;;;;;;;22.66;66.67;101044.41;431596;1266;137588;-73
2024/01/30 09:24:11;;;;;;;9.00;7.90;;;;;;;24.24;64.72;101031.15;431771;1266;138697;-67
2024/01/30 09:34:16;;;;;;;;;;;;;;;25.75;55.80;101029.52;431691;1268;138137;-64
2024/01/30 09:44:24;;;;;;;10.90;7.50;;;;;;;26.55;51.42;101022.56;431902;1266;124087;-72
2024/01/30 09:54:31;;;;;;;11.00;7.70;;;;;;;25.41;48.63;101020.67;431218;1266;2771865;-74
2024/01/30 10:04:42;;;;;;;10.70;6.90;;;;;;;20.28;45.71;101015.45;436395;1266;138906;-71
2024/01/30 10:14:47;;;;;;;10.90;7.70;;;;;;;14.70;47.45;101006.48;439773;1262;137758;-71
2024/01/30 10:24:54;;;;;;;8.40;6.50;;;;;;;12.15;49.74;101002.52;438135;1255;139628;-69
2024/01/30 10:35:00;;;;;;;31.10;7.30;;;;;;;10.25;51.46;100993.80;438962;1254;138581;-68
2024/01/30 10:45:12;;;;;;;10.90;8.00;;;;;;;8.73;53.22;100988.88;436267;1254;139041;-67
2024/01/30 10:55:19;;;;;;;11.20;6.70;;;;;;;7.89;55.07;100989.08;437127;1257;138765;-72
2024/01/30 11:05:29;;;;;;;10.70;8.00;;;;;;;7.35;56.33;100977.05;438959;1256;138878;-71
2024/01/30 11:15:41;;;;;;;11.50;6.30;;;;;;;6.99;57.64;100962.39;439336;1257;137988;-72
2024/01/30 11:25:48;;;;;;;11.00;7.20;;;;;;;6.79;58.47;100945.48;438586;1253;137987;-66
2024/01/30 11:35:52;;;;;;;;;;;;;;;6.71;59.42;100939.09;436267;1253;138860;-70
2024/01/30 11:45:59;;;;;;;8.70;6.70;;;;;;;6.63;59.56;100925.89;439186;1253;125717;-66
2024/01/30 11:56:08;;;;;;;10.10;5.80;;;;;;;6.61;60.41;100912.72;436069;1256;137895;-68
2024/01/30 12:06:16;;;;;;;12.00;7.40;;;;;;;6.61;60.65;100903.84;438291;1253;138505;-74
2024/01/30 12:16:22;;;;;;;13.50;6.20;;;;;;;6.61;61.07;100898.46;438972;1253;137720;-70
2024/01/30 12:26:29;;;;;;;8.70;6.70;;;;;;;6.64;61.17;100894.55;434469;1257;138059;-64
2024/01/30 12:36:35;;;;;;;8.70;6.00;;;;;;;6.67;61.67;100884.53;435456;1253;138407;-64
2024/01/30 12:46:41;;;;;;;8.50;7.10;;;;;;;6.71;61.72;100877.47;434675;1256;139071;-68
2024/01/30 12:56:48;;;;;;;16.40;8.70;;;;;;;6.75;61.83;100871.96;434906;1252;138662;-66
2024/01/30 13:06:54;;;;;;;8.50;5.70;;;;;;;6.81;62.10;100872.85;436005;1257;138439;-69
2024/01/30 13:17:00;;;;;;;10.10;6.40;;;;;;;6.83;62.29;100872.61;435017;1257;138512;-65
2024/01/30 13:27:07;;;;;;;8.80;6.00;;;;;;;6.85;62.34;100866.64;435089;1257;138859;-63
2024/01/30 13:37:12;;;;;;;10.10;6.30;;;;;;;6.86;62.50;100860.88;438065;1257;138671;-62
2024/01/30 13:47:21;;;;;;;8.50;6.30;;;;;;;6.85;62.52;100857.25;434982;1256;138012;-65
2024/01/30 13:57:27;;;;;;;11.10;6.50;;;;;;;6.82;62.61;100850.20;436684;1256;138022;-66
2024/01/30 14:07:33;;;;;;;11.20;7.70;;;;;;;6.78;62.62;100848.40;435083;1257;137837;-65
2024/01/30 14:17:39;;;;;;;12.00;7.70;;;;;;;6.71;62.63;100844.92;434986;1256;139199;-66
2024/01/30 14:27:45;;;;;;;8.00;6.30;;;;;;;6.61;62.77;100846.09;434732;1258;138048;-65
2024/01/30 14:37:52;;;;;;;12.50;8.20;;;;;;;6.43;63.00;100839.77;436359;1257;137926;-59
2024/01/30 14:47:58;;;;;;;14.40;8.50;;;;;;;6.25;63.24;100839.55;434389;1260;138162;-60
2024/01/30 14:58:05;;;;;;;12.70;8.50;;;;;;;6.02;63.53;100838.20;434331;1256;140239;-67
2024/01/30 15:08:11;;;;;;;18.40;9.90;;;;;;;5.73;63.87;100841.83;435386;1257;137954;-64
2024/01/30 15:18:17;;;;;;;24.50;14.00;;;;;;;5.40;64.53;100838.95;434515;1257;138200;-66
2024/01/30 15:28:35;;;;;;;32.60;22.10;;;;;;;5.05;65.01;100849.58;435021;1256;138427;-65
2024/01/30 15:38:41;;;;;;;23.60;16.20;;;;;;;4.71;65.94;100844.86;436207;1256;138360;-74
2024/01/30 15:48:48;;;;;;;30.10;18.60;;;;;;;4.45;66.58;100843.80;434803;1256;138994;-68
2024/01/30 15:58:54;;;;;;;29.30;20.00;;;;;;;4.12;66.89;100847.86;438873;1256;138136;-64
2024/01/30 16:09:00;;;;;;;29.20;19.20;;;;;;;3.79;67.61;100849.25;434389;1254;138830;-67
2024/01/30 16:19:06;;;;;;;22.40;17.00;;;;;;;3.50;68.12;100847.25;435403;1257;138146;-62
2024/01/30 16:29:12;;;;;;;25.90;16.80;;;;;;;3.22;68.60;100847.46;434387;1254;140355;-61
2024/01/30 16:39:18;;;;;;;36.50;25.20;;;;;;;2.93;69.32;100845.08;435284;1255;139013;-61
2024/01/30 16:49:24;;;;;;;32.80;23.60;;;;;;;2.75;69.61;100841.47;434448;1256;138504;-62
2024/01/30 16:59:30;;;;;;;42.80;26.00;;;;;;;2.61;70.47;100841.27;434720;1257;138687;-61
2024/01/30 17:09:36;;;;;;;40.60;26.30;;;;;;;2.33;70.75;100846.41;441019;1253;138889;-59
2024/01/30 17:19:42;;;;;;;33.80;22.20;;;;;;;2.05;71.20;100838.54;435099;1257;138537;-61
2024/01/30 17:29:48;;;;;;;29.80;20.50;;;;;;;1.86;71.95;100830.06;434638;1257;141163;-62
2024/01/30 17:39:54;;;;;;;31.30;22.10;;;;;;;1.73;72.24;100829.12;434898;1256;138453;-60
2024/01/30 17:50:00;;;;;;;44.20;26.40;;;;;;;1.58;72.51;100830.96;434553;1257;138912;-60
2024/01/30 18:00:08;;;;;;;22.30;14.80;;;;;;;1.37;73.01;100825.92;436404;1254;139371;-60
2024/01/30 18:10:18;;;;;;;18.60;12.00;;;;;;;1.38;73.72;100816.42;435108;1254;140426;-60
2024/01/30 18:20:25;;;;;;;21.10;12.80;;;;;;;1.40;73.84;100815.55;435185;1256;139082;-60
2024/01/30 18:30:31;;;;;;;15.80;11.80;;;;;;;1.37;73.93;100814.52;434159;1256;139993;-60
2024/01/30 18:40:37;;;;;;;20.70;13.10;;;;;;;1.36;74.44;100815.39;435124;1254;138487;-60
2024/01/30 18:50:43;;;;;;;21.40;14.80;;;;;;;1.34;74.51;100807.13;434279;1254;138854;-60
2024/01/30 19:00:49;;;;;;;27.90;13.70;;;;;;;1.33;74.85;100811.09;434454;1254;138643;-61
2024/01/30 19:10:56;;;;;;;21.70;15.10;;;;;;;1.30;75.09;100799.20;435845;1254;139575;-59
2024/01/30 19:21:02;;;;;;;19.00;12.20;;;;;;;1.26;74.95;100793.02;434141;1257;138126;-61
2024/01/30 19:31:09;;;;;;;21.40;13.60;;;;;;;1.20;75.24;100785.12;433962;1254;140295;-61
2024/01/30 19:41:13;;;;;;;;;;;;;;;1.20;75.58;100786.34;434500;1254;139561;-61
2024/01/30 19:51:19;;;;;;;22.50;12.80;;;;;;;1.25;75.65;100783.20;435115;1256;125877;-61
2024/01/30 20:01:26;;;;;;;16.90;11.30;;;;;;;1.29;75.92;100777.15;434150;1257;139274;-60
2024/01/30 20:11:32;;;;;;;30.30;14.90;;;;;;;1.24;75.81;100780.45;434801;1257;139245;-62
2024/01/30 20:21:38;;;;;;;20.80;14.30;;;;;;;1.13;76.00;100774.81;434240;1254;140450;-60
2024/01/30 20:31:45;;;;;;;20.00;14.60;;;;;;;1.05;76.34;100770.55;435739;1254;138466;-73
2024/01/30 20:41:52;;;;;;;14.80;10.50;;;;;;;0.99;76.38;100756.45;435076;1254;138250;-73
2024/01/30 20:51:59;;;;;;;21.90;13.20;;;;;;;1.02;76.85;100757.46;435242;1253;672404;-73
2024/01/30 21:02:05;;;;;;;18.70;11.50;;;;;;;1.07;77.08;100767.79;435926;1251;138735;-74
2024/01/30 21:12:12;;;;;;;22.80;15.50;;;;;;;0.99;77.14;100779.38;435733;1254;138108;-73
2024/01/30 21:22:20;;;;;;;18.10;10.90;;;;;;;0.84;77.32;100787.56;435279;1254;138969;-73
2024/01/30 21:32:26;;;;;;;18.00;10.70;;;;;;;0.68;77.82;100789.69;435543;1256;140462;-74
2024/01/30 21:42:32;;;;;;;19.90;14.50;;;;;;;0.55;78.13;100788.18;435376;1256;138994;-74
2024/01/30 21:52:38;;;;;;;14.10;10.50;;;;;;;0.45;78.78;100789.08;435514;1251;139263;-74
2024/01/30 22:02:44;;;;;;;17.50;11.00;;;;;;;0.47;79.70;100788.23;436058;1256;138687;-74
2024/01/30 22:12:51;;;;;;;18.40;10.90;;;;;;;0.54;80.23;100784.07;435935;1254;140025;-73
2024/01/30 22:22:57;;;;;;;18.80;10.60;;;;;;;0.62;80.57;100781.45;436897;1253;139329;-73
2024/01/30 22:33:05;;;;;;;17.10;12.80;;;;;;;0.64;80.81;100786.61;436216;1254;139485;-75
2024/01/30 22:43:12;;;;;;;13.30;9.10;;;;;;;0.60;81.04;100787.15;436682;1253;138387;-73
2024/01/30 22:53:18;;;;;;;17.60;10.80;;;;;;;0.59;81.42;100786.80;435378;1254;139722;-73
2024/01/30 23:03:24;;;;;;;13.60;10.40;;;;;;;0.59;81.61;100780.08;435901;1253;138350;-73
2024/01/30 23:13:30;;;;;;;14.70;10.00;;;;;;;0.55;81.94;100775.27;436161;1256;138926;-73
2024/01/30 23:23:36;;;;;;;16.70;10.70;;;;;;;0.52;82.11;100766.66;436000;1252;139361;-74
2024/01/30 23:33:42;;;;;;;12.80;10.00;;;;;;;0.51;82.53;100761.15;436072;1254;139613;-74
2024/01/30 23:43:48;;;;;;;14.30;8.90;;;;;;;0.48;82.85;100753.42;435993;1254;138514;-73
2024/01/30 23:53:55;;;;;;;13.10;9.80;;;;;;;0.44;83.24;100754.45;436943;1253;139558;-69
